Time;durP1;ratioP1;P1;durP2;ratioP2;P2;SDS_P1;SDS_P2;PMS_P1;PMS_P2;Temp;Humidity;BMP_temperature;BMP_pressure;BME280_temperature;BME280_humidity;BME280_pressure;Samples;Min_cycle;Max_cycle;Signal;HPM_P1;HPM_P2
2021/04/01 03:11:56;;;;;;;10.05;1.92;;;;;;;;;;5243926;27;20052;-92
2021/04/01 03:14:24;;;;;;;7.62;1.92;;;;;;;;;;5222380;27;20069;-91
2021/04/01 03:16:52;;;;;;;15.45;7.07;;;;;;;;;;5222324;27;20045;-93
2021/04/01 03:19:21;;;;;;;28.15;16.90;;;;;;;;;;5222529;27;20026;-93
2021/04/01 03:21:50;;;;;;;20.70;13.75;;;;;;;;;;5221901;27;20037;-92
2021/04/01 03:24:18;;;;;;;13.27;9.65;;;;;;;;;;5222292;27;20056;-92
2021/04/01 03:26:46;;;;;;;14.77;4.10;;;;;;;;;;5222245;27;20351;-92
2021/04/01 03:29:15;;;;;;;15.00;10.00;;;;;;;;;;5221715;27;20033;-92
2021/04/01 03:31:47;;;;;;;11.95;7.62;;;;;;;;;;5238173;27;20042;-94
2021/04/01 03:34:15;;;;;;;10.85;6.05;;;;;;;;;;5221231;27;20033;-93
2021/04/01 03:36:46;;;;;;;10.32;2.53;;;;;;;;;;5221514;27;20048;-92
2021/04/01 03:39:17;;;;;;;9.85;4.53;;;;;;;;;;5222349;27;20025;-93
2021/04/01 03:41:45;;;;;;;14.15;4.62;;;;;;;;;;5221261;27;20021;-94
2021/04/01 03:44:16;;;;;;;9.02;3.60;;;;;;;;;;5222085;27;20069;-92
2021/04/01 03:46:46;;;;;;;8.55;2.47;;;;;;;;;;5222449;27;20324;-92
2021/04/01 03:49:22;;;;;;;5.90;1.55;;;;;;;;;;5222771;27;20064;-93
2021/04/01 03:51:56;;;;;;;10.23;2.33;;;;;;;;;;5220742;27;20071;-92
2021/04/01 03:54:26;;;;;;;7.70;1.80;;;;;;;;;;5239042;27;20092;-93
2021/04/01 03:56:59;;;;;;;9.93;2.00;;;;;;;;;;5220946;27;20437;-91
2021/04/01 04:15:12;;;;;;;11.27;2.00;;;;;;;;;;5239486;27;20066;-94
2021/04/01 04:17:40;;;;;;;8.98;1.87;;;;;;;;;;5222093;27;20021;-91
2021/04/01 04:20:15;;;;;;;13.50;1.95;;;;;;;;;;5222271;27;20474;-93
2021/04/01 04:22:46;;;;;;;8.98;2.12;;;;;;;;;;5221636;27;20015;-93
2021/04/01 04:25:15;;;;;;;13.88;2.15;;;;;;;;;;5221978;27;20034;-91
2021/04/01 04:30:24;;;;;;;11.10;1.85;;;;;;;;;;5239727;27;20100;-93
2021/04/01 04:32:56;;;;;;;10.07;2.30;;;;;;;;;;5222073;27;20014;-92
2021/04/01 04:35:34;;;;;;;10.52;2.20;;;;;;;;;;5240987;27;20025;-93
2021/04/01 04:38:03;;;;;;;10.60;1.92;;;;;;;;;;5222213;27;20019;-93
2021/04/01 04:40:35;;;;;;;8.20;1.67;;;;;;;;;;5242093;27;20662;-93
2021/04/01 04:43:08;;;;;;;13.02;2.33;;;;;;;;;;5223292;27;20022;-93
2021/04/01 04:45:37;;;;;;;11.75;1.90;;;;;;;;;;5223914;27;20034;-93
2021/04/01 04:48:05;;;;;;;10.52;1.60;;;;;;;;;;5223622;27;20062;-92
2021/04/01 04:50:38;;;;;;;6.97;1.40;;;;;;;;;;5222151;27;20491;-93
2021/04/01 04:53:07;;;;;;;9.50;1.87;;;;;;;;;;5223758;27;20045;-94
2021/04/01 04:55:38;;;;;;;10.65;1.80;;;;;;;;;;5223683;27;20069;-93
2021/04/01 04:58:20;;;;;;;12.20;1.85;;;;;;;;;;5223858;27;20025;-93
2021/04/01 05:01:03;;;;;;;14.40;2.55;;;;;;;;;;5222747;27;20333;-93
2021/04/01 05:06:42;;;;;;;11.80;2.17;;;;;;;;;;5240404;27;20026;-92
2021/04/01 05:09:15;;;;;;;8.73;2.10;;;;;;;;;;5223722;27;20064;-92
2021/04/01 05:11:43;;;;;;;12.18;2.60;;;;;;;;;;5222543;27;20027;-91
2021/04/01 05:14:18;;;;;;;12.68;1.70;;;;;;;;;;5223186;27;20331;-91
2021/04/01 05:16:49;;;;;;;10.98;2.20;;;;;;;;;;5223706;27;20013;-93
2021/04/01 05:19:21;;;;;;;8.70;1.90;;;;;;;;;;5241045;27;20026;-94
2021/04/01 05:22:04;;;;;;;8.88;1.70;;;;;;;;;;5222708;27;20029;-95
2021/04/01 05:24:38;;;;;;;10.35;1.70;;;;;;;;;;5223080;27;20107;-92
2021/04/01 05:27:16;;;;;;;13.40;2.10;;;;;;;;;;5223418;27;20021;-93
2021/04/01 05:29:59;;;;;;;10.32;1.92;;;;;;;;;;5222724;27;20022;-93
2021/04/01 05:32:33;;;;;;;9.40;1.77;;;;;;;;;;5223058;27;20424;-93
2021/04/01 05:35:11;;;;;;;10.90;1.83;;;;;;;;;;5224442;27;20450;-93
2021/04/01 05:37:40;;;;;;;10.13;1.50;;;;;;;;;;5223609;27;20018;-94
2021/04/01 05:40:13;;;;;;;12.98;2.15;;;;;;;;;;5223519;27;20041;-93
2021/04/01 05:42:47;;;;;;;11.32;1.92;;;;;;;;;;5222863;27;20025;-93
2021/04/01 05:47:52;;;;;;;12.50;1.87;;;;;;;;;;5239969;27;20022;-93
2021/04/01 05:59:12;;;;;;;13.85;2.00;;;;;;;;;;5240795;27;20410;-92
2021/04/01 06:04:12;;;;;;;7.87;1.98;;;;;;;;;;5259361;27;20032;-93
2021/04/01 06:06:53;;;;;;;10.10;1.92;;;;;;;;;;5239748;27;20032;-91
2021/04/01 06:09:28;;;;;;;9.40;1.83;;;;;;;;;;5221598;27;20052;-95
2021/04/01 06:11:57;;;;;;;10.80;1.90;;;;;;;;;;5223253;27;20435;-92
2021/04/01 06:14:29;;;;;;;10.30;1.80;;;;;;;;;;5222117;27;20034;-91
2021/04/01 06:16:57;;;;;;;11.85;2.50;;;;;;;;;;5222499;27;20044;-93
2021/04/01 06:19:32;;;;;;;8.10;1.80;;;;;;;;;;5223465;27;20037;-94
2021/04/01 06:22:06;;;;;;;10.60;2.10;;;;;;;;;;5223078;27;20053;-92
2021/04/01 06:24:39;;;;;;;11.12;2.40;;;;;;;;;;5222886;27;20037;-93
2021/04/01 06:29:41;;;;;;;9.68;1.92;;;;;;;;;;5241029;27;20069;-92
2021/04/01 06:32:22;;;;;;;19.35;2.60;;;;;;;;;;5221512;27;20079;-92
2021/04/01 06:34:52;;;;;;;9.80;2.05;;;;;;;;;;5221048;27;20018;-92
2021/04/01 06:38:01;;;;;;;13.98;2.08;;;;;;;;;;5222726;27;20407;-92
2021/04/01 06:40:11;;;;;;;17.92;2.10;;;;;;;;;;5239844;27;20022;-94
2021/04/01 06:42:53;;;;;;;12.10;2.10;;;;;;;;;;5222831;27;20060;-93
2021/04/01 06:45:25;;;;;;;7.87;1.75;;;;;;;;;;5222781;27;20060;-92
2021/04/01 06:47:57;;;;;;;8.82;2.17;;;;;;;;;;5222906;27;20100;-93
2021/04/01 06:50:36;;;;;;;12.80;1.77;;;;;;;;;;5222337;27;20100;-93
2021/04/01 06:53:16;;;;;;;10.68;1.83;;;;;;;;;;5221970;27;20029;-92
2021/04/01 06:56:28;;;;;;;8.93;1.73;;;;;;;;;;5225594;27;20025;-94
2021/04/01 06:59:18;;;;;;;12.35;2.40;;;;;;;;;;5240650;27;20208;-93
2021/04/01 07:02:22;;;;;;;69.20;9.00;;;;;;;;;;5222275;27;20032;-94
2021/04/01 07:04:59;;;;;;;29.37;3.97;;;;;;;;;;5222290;27;20030;-92
2021/04/01 07:07:32;;;;;;;23.75;2.47;;;;;;;;;;5220819;27;20411;-94
2021/04/01 07:12:55;;;;;;;45.25;10.25;;;;;;;;;;5238153;27;20041;-93
2021/04/01 07:15:34;;;;;;;44.38;22.65;;;;;;;;;;5220315;27;20023;-92
2021/04/01 07:18:57;;;;;;;32.03;20.05;;;;;;;;;;5222420;27;20061;-93
2021/04/01 07:21:29;;;;;;;57.03;36.63;;;;;;;;;;5235845;27;20085;-93
2021/04/01 07:46:30;;;;;;;15.82;8.73;;;;;;;;;;5238843;27;20068;-93
2021/04/01 07:49:10;;;;;;;8.05;1.85;;;;;;;;;;5215296;27;20029;-94
2021/04/01 07:54:25;;;;;;;8.13;1.70;;;;;;;;;;5237238;27;20036;-94
2021/04/01 07:57:14;;;;;;;11.43;2.12;;;;;;;;;;5214381;27;20025;-94
2021/04/01 08:02:48;;;;;;;13.25;2.50;;;;;;;;;;5234985;27;19941;-94
2021/04/01 08:05:38;;;;;;;12.00;2.97;;;;;;;;;;5214179;27;20137;-94
2021/04/01 08:08:12;;;;;;;8.20;2.05;;;;;;;;;;5218618;27;20078;-95
2021/04/01 08:10:46;;;;;;;7.25;1.87;;;;;;;;;;5230405;27;20033;-96
2021/04/01 08:13:18;;;;;;;12.02;2.12;;;;;;;;;;5232635;27;20309;-95
2021/04/01 08:15:52;;;;;;;8.33;2.23;;;;;;;;;;5211263;27;20061;-95
2021/04/01 08:18:26;;;;;;;10.60;1.80;;;;;;;;;;5205014;27;20041;-96
2021/04/01 08:21:02;;;;;;;8.57;1.92;;;;;;;;;;5211094;27;20033;-96
2021/04/01 08:24:02;;;;;;;10.80;2.10;;;;;;;;;;5222230;27;20030;-96
2021/04/01 08:27:14;;;;;;;8.60;1.85;;;;;;;;;;5219618;27;20023;-95
2021/04/01 08:36:22;;;;;;;8.75;2.12;;;;;;;;;;5232315;27;20032;-96
2021/04/01 08:39:13;;;;;;;7.22;1.65;;;;;;;;;;5217900;27;20031;-96
2021/04/01 08:42:06;;;;;;;8.40;2.20;;;;;;;;;;5218929;27;20052;-95
2021/04/01 08:48:20;;;;;;;7.78;2.12;;;;;;;;;;5226860;27;20034;-95
2021/04/01 08:50:57;;;;;;;6.20;1.80;;;;;;;;;;5215007;27;20031;-95
2021/04/01 08:54:03;;;;;;;7.85;2.10;;;;;;;;;;5218172;27;20030;-94
2021/04/01 08:56:40;;;;;;;7.20;2.10;;;;;;;;;;5230561;27;20023;-96
2021/04/01 08:59:25;;;;;;;7.68;2.15;;;;;;;;;;5235238;27;20033;-95
2021/04/01 09:01:56;;;;;;;6.12;1.98;;;;;;;;;;5221829;27;20050;-96
2021/04/01 09:04:29;;;;;;;4.60;1.67;;;;;;;;;;5236960;27;20065;-96
2021/04/01 09:07:10;;;;;;;7.70;1.73;;;;;;;;;;5242267;27;20034;-96
2021/04/01 09:09:43;;;;;;;8.18;2.65;;;;;;;;;;5244507;27;20643;-96
2021/04/01 09:12:52;;;;;;;8.10;2.37;;;;;;;;;;5236733;27;20082;-96
2021/04/01 09:15:25;;;;;;;7.12;2.45;;;;;;;;;;5230723;27;20403;-95
2021/04/01 09:17:54;;;;;;;8.02;2.15;;;;;;;;;;5216537;27;20034;-96
2021/04/01 09:44:26;;;;;;;7.15;2.17;;;;;;;;;;5225047;27;20044;-83
2021/04/01 09:47:07;;;;;;;6.85;2.10;;;;;;;;;;5228717;27;20060;-83
2021/04/01 09:49:52;;;;;;;6.32;1.95;;;;;;;;;;5232197;27;20444;-83
2021/04/01 09:52:26;;;;;;;6.68;2.00;;;;;;;;;;5229407;27;20058;-82
2021/04/01 09:54:55;;;;;;;11.45;2.62;;;;;;;;;;5231366;27;20030;-83
2021/04/01 09:57:37;;;;;;;8.25;2.22;;;;;;;;;;5230849;27;20040;-84
2021/04/01 10:00:15;;;;;;;5.18;1.85;;;;;;;;;;5230297;27;20023;-84
2021/04/01 10:02:47;;;;;;;5.85;2.03;;;;;;;;;;5229838;27;20042;-84
2021/04/01 10:05:18;;;;;;;8.48;2.20;;;;;;;;;;5234026;27;20026;-85
2021/04/01 10:07:56;;;;;;;7.80;2.10;;;;;;;;;;5230013;27;20053;-85
2021/04/01 10:10:30;;;;;;;7.15;2.22;;;;;;;;;;5230203;27;20370;-85
2021/04/01 10:12:59;;;;;;;6.10;1.80;;;;;;;;;;5229504;27;20354;-84
2021/04/01 10:15:31;;;;;;;7.03;1.75;;;;;;;;;;5229804;27;20389;-85
2021/04/01 10:17:59;;;;;;;6.35;1.60;;;;;;;;;;5229823;27;20019;-84
2021/04/01 10:20:27;;;;;;;6.80;2.30;;;;;;;;;;5226562;27;20029;-85
2021/04/01 10:23:04;;;;;;;7.28;2.05;;;;;;;;;;5227972;27;20042;-84
2021/04/01 10:25:37;;;;;;;4.55;1.58;;;;;;;;;;5228306;27;20045;-84
2021/04/01 10:28:17;;;;;;;9.40;2.28;;;;;;;;;;5229212;27;20082;-84
2021/04/01 10:30:46;;;;;;;10.07;2.80;;;;;;;;;;5235056;27;20022;-84
2021/04/01 10:33:34;;;;;;;8.70;2.40;;;;;;;;;;5223522;27;20124;-84
2021/04/01 10:36:04;;;;;;;5.97;2.08;;;;;;;;;;5225247;27;20101;-84
2021/04/01 10:38:34;;;;;;;6.37;2.30;;;;;;;;;;5230712;27;20029;-84
2021/04/01 10:41:11;;;;;;;9.10;2.00;;;;;;;;;;5226086;27;20081;-84
2021/04/01 10:43:42;;;;;;;9.63;2.10;;;;;;;;;;5230702;27;20022;-84
2021/04/01 10:46:15;;;;;;;7.90;2.92;;;;;;;;;;5249717;27;20042;-84
2021/04/01 10:48:54;;;;;;;8.15;2.30;;;;;;;;;;5245155;27;20093;-85
2021/04/01 10:51:24;;;;;;;10.38;2.35;;;;;;;;;;5246979;27;20648;-85
2021/04/01 10:53:52;;;;;;;9.52;2.40;;;;;;;;;;5248503;27;20052;-84
2021/04/01 10:56:21;;;;;;;5.80;2.00;;;;;;;;;;5251647;27;20351;-84
2021/04/01 10:58:54;;;;;;;7.35;1.87;;;;;;;;;;5253405;27;20030;-84
2021/04/01 11:01:23;;;;;;;6.25;1.80;;;;;;;;;;5254165;27;20078;-84
2021/04/01 11:03:54;;;;;;;4.80;2.03;;;;;;;;;;5253802;27;20037;-84
2021/04/01 11:06:24;;;;;;;4.45;1.83;;;;;;;;;;5252597;27;20933;-84
2021/04/01 11:08:59;;;;;;;7.47;2.50;;;;;;;;;;5251094;27;20037;-84
2021/04/01 11:11:48;;;;;;;5.75;1.65;;;;;;;;;;5248315;27;20529;-84
2021/04/01 11:14:16;;;;;;;4.85;2.00;;;;;;;;;;5251034;27;20026;-84
2021/04/01 11:16:46;;;;;;;7.82;2.10;;;;;;;;;;5247066;27;20364;-85
2021/04/01 11:19:15;;;;;;;10.85;1.90;;;;;;;;;;5248585;27;20157;-85
2021/04/01 11:21:43;;;;;;;3.40;1.42;;;;;;;;;;5248458;27;20504;-85
2021/04/01 11:24:11;;;;;;;4.82;1.52;;;;;;;;;;5246049;27;20341;-85
2021/04/01 11:26:40;;;;;;;6.47;1.67;;;;;;;;;;5247158;27;20404;-85
2021/04/01 11:29:13;;;;;;;4.10;1.30;;;;;;;;;;5248573;27;20061;-85
2021/04/01 11:31:41;;;;;;;4.78;1.50;;;;;;;;;;5250768;27;20053;-84
2021/04/01 11:34:10;;;;;;;4.95;1.70;;;;;;;;;;5249523;27;20032;-84
2021/04/01 11:36:41;;;;;;;6.00;1.98;;;;;;;;;;5246592;27;20079;-85
2021/04/01 11:39:24;;;;;;;5.72;1.55;;;;;;;;;;5224383;27;20041;-85
2021/04/01 11:41:53;;;;;;;4.80;1.50;;;;;;;;;;5247542;27;20053;-85
2021/04/01 11:44:21;;;;;;;6.00;1.70;;;;;;;;;;5244636;27;20076;-84
2021/04/01 11:46:49;;;;;;;6.10;1.77;;;;;;;;;;5247170;27;20125;-84
2021/04/01 11:49:17;;;;;;;3.70;1.42;;;;;;;;;;5243280;27;20072;-85
2021/04/01 11:51:45;;;;;;;3.87;1.35;;;;;;;;;;5249683;27;20029;-85
2021/04/01 11:54:25;;;;;;;5.90;1.50;;;;;;;;;;5251504;27;20026;-85
2021/04/01 11:56:53;;;;;;;3.17;1.10;;;;;;;;;;5249623;27;20060;-85
2021/04/01 11:59:31;;;;;;;6.78;1.80;;;;;;;;;;5227016;27;20244;-84
2021/04/01 12:02:11;;;;;;;6.50;1.58;;;;;;;;;;5246943;27;20042;-84
2021/04/01 12:04:44;;;;;;;3.85;1.08;;;;;;;;;;5241600;27;21056;-84
2021/04/01 12:07:12;;;;;;;;;;;;;;;;;;5225370;27;20026;-84
2021/04/01 12:09:44;;;;;;;5.97;1.52;;;;;;;;;;5248996;27;19940;-84
2021/04/01 12:12:12;;;;;;;5.35;1.23;;;;;;;;;;5251965;27;20025;-84
2021/04/01 12:14:41;;;;;;;3.78;1.35;;;;;;;;;;5250896;27;20030;-85
2021/04/01 12:17:09;;;;;;;5.12;1.50;;;;;;;;;;5249662;27;20030;-84
2021/04/01 12:19:37;;;;;;;4.55;1.27;;;;;;;;;;5248744;27;20057;-84
2021/04/01 12:22:13;;;;;;;4.50;1.10;;;;;;;;;;5247666;27;20165;-84
2021/04/01 12:24:42;;;;;;;5.80;1.73;;;;;;;;;;5249906;27;20066;-85
2021/04/01 12:27:10;;;;;;;4.15;1.60;;;;;;;;;;5247920;27;20122;-84
2021/04/01 12:29:45;;;;;;;7.28;1.60;;;;;;;;;;5226307;27;20050;-84
2021/04/01 12:32:13;;;;;;;3.42;0.70;;;;;;;;;;5243521;27;20060;-84
2021/04/01 12:34:41;;;;;;;2.97;0.98;;;;;;;;;;5242669;27;20058;-84
2021/04/01 12:37:15;;;;;;;3.05;0.80;;;;;;;;;;5242598;27;20115;-84
2021/04/01 12:39:44;;;;;;;3.22;0.90;;;;;;;;;;5244397;27;20044;-85
2021/04/01 12:42:12;;;;;;;2.72;1.00;;;;;;;;;;5227139;27;20061;-84
2021/04/01 12:44:42;;;;;;;2.58;0.90;;;;;;;;;;5251109;27;20056;-84
2021/04/01 12:47:22;;;;;;;3.40;0.80;;;;;;;;;;5251971;27;20058;-84
2021/04/01 12:49:50;;;;;;;3.42;1.00;;;;;;;;;;5243379;27;20067;-84
2021/04/01 12:52:18;;;;;;;7.18;1.48;;;;;;;;;;5244147;27;20029;-83
2021/04/01 12:54:51;;;;;;;4.25;1.40;;;;;;;;;;5252956;27;20435;-83
2021/04/01 12:57:23;;;;;;;2.50;1.17;;;;;;;;;;5247461;27;20061;-84
2021/04/01 13:00:25;;;;;;;7.20;1.50;;;;;;;;;;5242253;27;20026;-84
2021/04/01 13:02:54;;;;;;;5.37;1.40;;;;;;;;;;5229339;27;20025;-85
2021/04/01 13:05:22;;;;;;;4.43;1.10;;;;;;;;;;5249476;27;20034;-84
2021/04/01 13:08:04;;;;;;;5.28;1.00;;;;;;;;;;5249671;27;20418;-84
2021/04/01 13:10:41;;;;;;;5.32;1.30;;;;;;;;;;5250077;27;20076;-85
2021/04/01 13:13:10;;;;;;;6.25;1.27;;;;;;;;;;5253318;27;20344;-83
2021/04/01 13:15:39;;;;;;;6.10;1.10;;;;;;;;;;5253810;27;20041;-84
2021/04/01 13:18:10;;;;;;;3.97;1.02;;;;;;;;;;5252333;27;20125;-83
2021/04/01 13:20:38;;;;;;;6.45;1.40;;;;;;;;;;5252152;27;20045;-84
2021/04/01 13:23:25;;;;;;;5.03;1.50;;;;;;;;;;5233750;27;20110;-84
2021/04/01 13:25:54;;;;;;;5.20;1.20;;;;;;;;;;5252089;27;20359;-84
2021/04/01 13:28:23;;;;;;;11.82;1.58;;;;;;;;;;5229900;27;20061;-84
2021/04/01 13:31:18;;;;;;;;;;;;;;;;;;;;;
2021/04/01 13:34:18;;;;;;;7.32;1.40;;;;;;;;;;5224984;27;20045;-86
2021/04/01 13:42:35;;;;;;;8.48;1.48;;;;;;;;;;5248545;27;20033;-84
2021/04/01 13:45:08;;;;;;;5.20;1.52;;;;;;;;;;5245452;27;20065;-84
2021/04/01 13:47:42;;;;;;;5.97;1.30;;;;;;;;;;5253407;27;20033;-83
2021/04/01 13:50:13;;;;;;;6.60;1.30;;;;;;;;;;5250978;27;20002;-84
2021/04/01 13:52:48;;;;;;;5.97;1.10;;;;;;;;;;5253709;27;20915;-84
2021/04/01 13:55:35;;;;;;;4.12;1.23;;;;;;;;;;5248993;27;20380;-84
2021/04/01 14:09:17;;;;;;;4.12;0.85;;;;;;;;;;5250948;27;20043;-84
2021/04/01 14:11:46;;;;;;;4.30;0.75;;;;;;;;;;5230720;27;20013;-84
2021/04/01 14:14:14;;;;;;;4.47;1.10;;;;;;;;;;5251190;27;20037;-84
2021/04/01 14:16:42;;;;;;;3.55;0.88;;;;;;;;;;5251154;27;20491;-84
2021/04/01 14:19:10;;;;;;;4.75;1.05;;;;;;;;;;5247700;27;20030;-83
2021/04/01 14:21:39;;;;;;;4.78;0.80;;;;;;;;;;5246627;27;20091;-83
2021/04/01 14:24:10;;;;;;;4.00;0.90;;;;;;;;;;5249277;27;20026;-84
2021/04/01 14:26:46;;;;;;;5.20;0.80;;;;;;;;;;5248867;27;20034;-83
2021/04/01 14:29:15;;;;;;;3.55;0.90;;;;;;;;;;5249735;27;20014;-83
2021/04/01 14:31:45;;;;;;;2.58;0.70;;;;;;;;;;5246645;27;20078;-84
2021/04/01 14:34:13;;;;;;;2.05;0.70;;;;;;;;;;5251464;27;20025;-84
2021/04/01 14:36:41;;;;;;;2.97;0.90;;;;;;;;;;5250858;27;20022;-83
2021/04/01 14:39:09;;;;;;;2.12;0.52;;;;;;;;;;5247523;27;20772;-84
2021/04/01 14:41:53;;;;;;;5.37;0.77;;;;;;;;;;5229304;27;20033;-84
2021/04/01 14:44:22;;;;;;;;;;;;;;;;;;5251613;27;20136;-84
2021/04/01 14:46:52;;;;;;;3.80;0.88;;;;;;;;;;5253038;27;20008;-84
2021/04/01 14:49:20;;;;;;;3.62;1.20;;;;;;;;;;5253103;27;20029;-84
2021/04/01 14:51:49;;;;;;;4.28;0.90;;;;;;;;;;5249934;27;20048;-86
2021/04/01 14:54:19;;;;;;;3.42;0.85;;;;;;;;;;5253046;27;20034;-87
2021/04/01 14:56:53;;;;;;;3.05;0.70;;;;;;;;;;5253335;27;20018;-84
2021/04/01 14:59:24;;;;;;;2.00;0.80;;;;;;;;;;5253131;27;20524;-84
2021/04/01 15:02:03;;;;;;;5.85;1.10;;;;;;;;;;5211664;27;20046;-84
2021/04/01 15:04:32;;;;;;;4.72;0.80;;;;;;;;;;5251023;27;20026;-84
2021/04/01 15:07:01;;;;;;;4.05;0.70;;;;;;;;;;5252136;27;20568;-84
2021/04/01 15:09:30;;;;;;;4.55;0.75;;;;;;;;;;5254306;27;20018;-84
2021/04/01 15:11:57;;;;;;;2.80;0.77;;;;;;;;;;5229384;27;20065;-84
2021/04/01 15:14:26;;;;;;;4.32;0.98;;;;;;;;;;5249549;27;20080;-85
2021/04/01 15:16:55;;;;;;;2.58;0.62;;;;;;;;;;5233084;27;20022;-85
2021/04/01 15:19:24;;;;;;;2.62;0.73;;;;;;;;;;5254386;27;20022;-84
2021/04/01 15:21:52;;;;;;;3.97;0.95;;;;;;;;;;5252740;27;20649;-83
2021/04/01 15:24:20;;;;;;;2.95;0.93;;;;;;;;;;5253622;27;20025;-85
2021/04/01 15:26:47;;;;;;;3.70;0.80;;;;;;;;;;5253441;27;20025;-84
2021/04/01 15:29:16;;;;;;;2.78;0.90;;;;;;;;;;5252843;27;20033;-84
2021/04/01 15:31:45;;;;;;;4.03;0.70;;;;;;;;;;5252625;27;20026;-84
2021/04/01 15:34:14;;;;;;;4.87;0.90;;;;;;;;;;5251144;27;20039;-84
2021/04/01 15:36:42;;;;;;;4.35;0.90;;;;;;;;;;5228788;27;20522;-84
2021/04/01 15:39:10;;;;;;;3.58;0.75;;;;;;;;;;5253030;27;20557;-84
2021/04/01 15:41:38;;;;;;;5.40;0.88;;;;;;;;;;5247489;27;20056;-83
2021/04/01 15:44:07;;;;;;;3.33;0.85;;;;;;;;;;5251332;27;20033;-84
2021/04/01 15:46:35;;;;;;;3.10;0.85;;;;;;;;;;5252893;27;20026;-84
2021/04/01 15:49:04;;;;;;;4.37;0.95;;;;;;;;;;5252773;27;20030;-84
2021/04/01 15:51:33;;;;;;;5.12;0.80;;;;;;;;;;5245693;27;20062;-84
2021/04/01 15:54:01;;;;;;;5.35;1.10;;;;;;;;;;5246837;27;20053;-85
2021/04/01 15:56:29;;;;;;;3.28;0.70;;;;;;;;;;5251634;27;20063;-84
2021/04/01 15:58:57;;;;;;;6.00;0.93;;;;;;;;;;5253827;27;20374;-84
2021/04/01 16:01:25;;;;;;;5.40;0.90;;;;;;;;;;5228663;27;20763;-85
2021/04/01 16:03:54;;;;;;;3.37;0.70;;;;;;;;;;5250565;27;20478;-84
2021/04/01 16:06:22;;;;;;;7.95;1.20;;;;;;;;;;5253507;27;20489;-84
2021/04/01 16:08:50;;;;;;;3.78;1.00;;;;;;;;;;5254690;27;20056;-84
2021/04/01 16:11:19;;;;;;;5.62;1.00;;;;;;;;;;5249049;27;20056;-85
2021/04/01 16:13:47;;;;;;;5.37;1.08;;;;;;;;;;5250583;27;20048;-85
2021/04/01 16:16:16;;;;;;;4.85;0.98;;;;;;;;;;5253726;27;20010;-84
2021/04/01 16:18:45;;;;;;;5.43;1.30;;;;;;;;;;5234416;27;20010;-83
2021/04/01 16:21:13;;;;;;;4.78;1.00;;;;;;;;;;5251487;27;20046;-83
2021/04/01 16:23:41;;;;;;;4.22;0.80;;;;;;;;;;5233523;27;20706;-84
2021/04/01 16:26:09;;;;;;;6.12;1.05;;;;;;;;;;5233754;27;20026;-84
2021/04/01 16:28:37;;;;;;;5.82;1.15;;;;;;;;;;5252411;27;20030;-84
2021/04/01 16:31:05;;;;;;;5.72;1.10;;;;;;;;;;5254620;27;20412;-84
2021/04/01 16:33:35;;;;;;;4.95;0.82;;;;;;;;;;5253852;27;20038;-84
2021/04/01 16:36:04;;;;;;;8.27;1.00;;;;;;;;;;5254120;27;20513;-84
2021/04/01 16:38:35;;;;;;;5.07;1.15;;;;;;;;;;5231084;27;20463;-84
2021/04/01 16:41:04;;;;;;;5.03;1.02;;;;;;;;;;5252813;27;20044;-84
2021/04/01 16:43:33;;;;;;;6.50;1.30;;;;;;;;;;5233483;27;20057;-84
2021/04/01 16:46:02;;;;;;;3.17;0.70;;;;;;;;;;5253482;27;20065;-83
2021/04/01 16:48:30;;;;;;;4.18;0.80;;;;;;;;;;5248597;27;20084;-83
2021/04/01 16:50:59;;;;;;;8.25;1.30;;;;;;;;;;5252275;27;20026;-84
2021/04/01 16:53:46;;;;;;;4.55;1.10;;;;;;;;;;5236155;27;20033;-83
2021/04/01 16:56:16;;;;;;;4.60;1.08;;;;;;;;;;5252281;27;20010;-83
2021/04/01 16:58:45;;;;;;;7.15;1.20;;;;;;;;;;5251125;27;20040;-83
2021/04/01 17:01:30;;;;;;;6.53;0.90;;;;;;;;;;5252239;27;20024;-83
2021/04/01 17:04:00;;;;;;;6.75;1.48;;;;;;;;;;5254195;27;20029;-83
2021/04/01 17:06:29;;;;;;;6.50;1.23;;;;;;;;;;5252102;27;20057;-83
2021/04/01 17:08:56;;;;;;;4.78;1.17;;;;;;;;;;5249764;27;20061;-84
2021/04/01 17:11:25;;;;;;;5.20;1.12;;;;;;;;;;5229941;27;20030;-83
2021/04/01 17:13:53;;;;;;;5.15;1.10;;;;;;;;;;5252731;27;20195;-83
2021/04/01 17:16:21;;;;;;;5.82;1.00;;;;;;;;;;5251069;27;20017;-83
2021/04/01 17:18:49;;;;;;;12.40;5.45;;;;;;;;;;5247846;27;20046;-83
2021/04/01 17:21:19;;;;;;;11.40;3.12;;;;;;;;;;5248232;27;20065;-84
2021/04/01 17:23:47;;;;;;;34.50;19.35;;;;;;;;;;5253694;27;20026;-83
2021/04/01 17:26:16;;;;;;;33.22;16.10;;;;;;;;;;5251285;27;20123;-84
2021/04/01 17:28:43;;;;;;;22.20;9.70;;;;;;;;;;5233175;27;20442;-83
2021/04/01 17:31:12;;;;;;;15.23;6.00;;;;;;;;;;5253737;27;20030;-84
2021/04/01 17:33:40;;;;;;;18.85;6.18;;;;;;;;;;5254530;27;20479;-83
2021/04/01 17:36:08;;;;;;;15.98;7.32;;;;;;;;;;5252366;27;20017;-84
2021/04/01 17:38:37;;;;;;;5.82;1.33;;;;;;;;;;5250125;27;20066;-83
2021/04/01 17:41:06;;;;;;;4.40;1.12;;;;;;;;;;5249414;27;20357;-83
2021/04/01 17:43:34;;;;;;;11.52;3.70;;;;;;;;;;5256642;27;20029;-83
2021/04/01 17:46:03;;;;;;;14.18;3.17;;;;;;;;;;5253584;27;20026;-83
2021/04/01 17:48:32;;;;;;;7.72;1.50;;;;;;;;;;5251781;27;20095;-83
2021/04/01 17:51:00;;;;;;;7.53;1.40;;;;;;;;;;5254460;27;20018;-83
2021/04/01 17:53:28;;;;;;;4.65;1.00;;;;;;;;;;5254249;27;20030;-83
2021/04/01 17:55:59;;;;;;;7.65;1.40;;;;;;;;;;5253543;27;20076;-83
2021/04/01 17:58:29;;;;;;;7.22;1.10;;;;;;;;;;5251951;27;20022;-83
2021/04/01 18:01:10;;;;;;;7.85;1.45;;;;;;;;;;5253528;27;20068;-83
2021/04/01 18:26:06;;;;;;;6.57;1.52;;;;;;;;;;5252632;27;20034;-83
2021/04/01 18:44:15;;;;;;;8.38;1.60;;;;;;;;;;5228250;27;20030;-83
2021/04/01 18:46:51;;;;;;;8.55;1.37;;;;;;;;;;5252922;27;20018;-83
2021/04/01 18:52:05;;;;;;;8.27;1.37;;;;;;;;;;5253177;27;20046;-83
2021/04/01 18:57:34;;;;;;;7.33;1.20;;;;;;;;;;5253227;27;20479;-83
2021/04/01 19:00:06;;;;;;;7.22;1.50;;;;;;;;;;5233037;27;20069;-83
2021/04/01 19:02:35;;;;;;;7.07;1.20;;;;;;;;;;5251128;27;20018;-82
2021/04/01 19:05:14;;;;;;;5.22;1.10;;;;;;;;;;5248373;27;20484;-85
2021/04/01 19:07:46;;;;;;;13.45;1.30;;;;;;;;;;5251013;27;20446;-85
2021/04/01 19:24:46;;;;;;;7.07;1.48;;;;;;;;;;5253482;27;20515;-84
2021/04/01 19:27:15;;;;;;;6.37;1.40;;;;;;;;;;5251679;27;20112;-85
2021/04/01 19:29:43;;;;;;;14.73;1.98;;;;;;;;;;5251684;27;20416;-85
2021/04/01 19:32:11;;;;;;;7.68;1.25;;;;;;;;;;5247197;27;20034;-85
2021/04/01 19:34:43;;;;;;;5.32;1.45;;;;;;;;;;5248505;27;20061;-84
2021/04/01 19:37:13;;;;;;;10.13;1.25;;;;;;;;;;5248417;27;20034;-86
2021/04/01 19:39:42;;;;;;;8.95;1.55;;;;;;;;;;5249973;27;20173;-85
2021/04/01 19:42:14;;;;;;;6.50;1.30;;;;;;;;;;5244679;27;20032;-85
2021/04/01 19:44:46;;;;;;;8.57;1.45;;;;;;;;;;5244763;27;20476;-85
2021/04/01 19:47:17;;;;;;;12.93;1.90;;;;;;;;;;5252165;27;20207;-85
2021/04/01 19:49:45;;;;;;;9.70;1.37;;;;;;;;;;5251118;27;20024;-86
2021/04/01 19:52:14;;;;;;;9.00;1.40;;;;;;;;;;5247042;27;20053;-85
2021/04/01 19:54:42;;;;;;;8.20;1.50;;;;;;;;;;5246231;27;20065;-85
2021/04/01 19:57:11;;;;;;;6.60;1.27;;;;;;;;;;5249891;27;20029;-85
2021/04/01 19:59:44;;;;;;;9.20;1.60;;;;;;;;;;5232618;27;20033;-84
2021/04/01 20:02:20;;;;;;;13.20;1.85;;;;;;;;;;5247145;27;20110;-85
2021/04/01 20:04:49;;;;;;;9.18;1.52;;;;;;;;;;5249328;27;20060;-85
2021/04/01 20:07:17;;;;;;;9.13;1.52;;;;;;;;;;5231190;27;20026;-85
2021/04/01 20:09:45;;;;;;;13.38;1.90;;;;;;;;;;5247343;27;20097;-84
2021/04/01 20:12:13;;;;;;;6.82;1.65;;;;;;;;;;5249882;27;20026;-84
2021/04/01 20:14:42;;;;;;;8.85;1.58;;;;;;;;;;5252350;27;20027;-85
2021/04/01 20:17:10;;;;;;;11.40;1.87;;;;;;;;;;5252494;27;20769;-85
2021/04/01 20:19:38;;;;;;;8.32;1.48;;;;;;;;;;5251831;27;20055;-85
2021/04/01 20:22:25;;;;;;;8.15;1.98;;;;;;;;;;5229017;27;20042;-85
2021/04/01 20:24:53;;;;;;;12.57;1.90;;;;;;;;;;5228822;27;20206;-85
2021/04/01 20:27:21;;;;;;;15.40;2.62;;;;;;;;;;5247320;27;20564;-85
2021/04/01 20:29:51;;;;;;;7.82;2.03;;;;;;;;;;5249540;27;20036;-84
2021/04/01 20:32:20;;;;;;;14.07;2.25;;;;;;;;;;5247716;27;20026;-85
2021/04/01 20:34:47;;;;;;;9.75;2.47;;;;;;;;;;5247794;27;20042;-85
2021/04/01 20:37:15;;;;;;;13.88;2.67;;;;;;;;;;5248937;27;20075;-84
2021/04/01 20:39:44;;;;;;;21.95;3.28;;;;;;;;;;5249322;27;20064;-85
2021/04/01 20:42:12;;;;;;;22.27;3.83;;;;;;;;;;5251736;27;20403;-84
2021/04/01 20:44:42;;;;;;;18.65;3.47;;;;;;;;;;5248983;27;20021;-84
2021/04/01 20:47:11;;;;;;;17.25;2.55;;;;;;;;;;5249988;27;20030;-84
2021/04/01 20:49:41;;;;;;;12.63;2.35;;;;;;;;;;5250023;27;20396;-85
2021/04/01 20:52:12;;;;;;;17.98;2.70;;;;;;;;;;5251608;27;20116;-84
2021/04/01 20:54:41;;;;;;;14.05;2.80;;;;;;;;;;5249566;27;20022;-85
2021/04/01 20:57:08;;;;;;;15.00;2.50;;;;;;;;;;5249845;27;20057;-85
2021/04/01 20:59:36;;;;;;;14.40;2.78;;;;;;;;;;5251047;27;20060;-85
2021/04/01 21:02:05;;;;;;;12.85;2.58;;;;;;;;;;5251476;27;20498;-85
2021/04/01 21:04:33;;;;;;;13.88;2.83;;;;;;;;;;5252100;27;20066;-85
2021/04/01 21:07:03;;;;;;;10.90;2.37;;;;;;;;;;5250047;27;20026;-85
2021/04/01 21:09:31;;;;;;;14.63;2.33;;;;;;;;;;5250889;27;20033;-85
2021/04/01 21:12:01;;;;;;;11.27;2.47;;;;;;;;;;5251708;27;20064;-84
2021/04/01 21:14:31;;;;;;;23.30;12.10;;;;;;;;;;5251845;27;20049;-85
2021/04/01 21:17:05;;;;;;;27.23;12.32;;;;;;;;;;5249579;27;20425;-85
2021/04/01 21:19:33;;;;;;;31.77;12.90;;;;;;;;;;5249800;27;20026;-85
2021/04/01 21:22:02;;;;;;;30.40;12.55;;;;;;;;;;5248860;27;20416;-85